Time;durP1;ratioP1;P1;durP2;ratioP2;P2;SDS_P1;SDS_P2;PMS_P1;PMS_P2;Temp;Humidity;BMP_temperature;BMP_pressure;BME280_temperature;BME280_humidity;BME280_pressure;Samples;Min_cycle;Max_cycle;Signal;HPM_P1;HPM_P2
2023/06/05 00:02:08;;;;;;;9.13;4.60;;;12.00;99.90;;;;;;5061702;28;20039;-75
2023/06/05 00:04:35;;;;;;;8.33;4.70;;;11.90;99.90;;;;;;5095393;28;20122;-75
2023/06/05 00:07:02;;;;;;;10.07;5.10;;;12.00;99.90;;;;;;5061886;28;20096;-75
2023/06/05 00:09:27;;;;;;;5.67;4.07;;;12.10;99.90;;;;;;5113234;28;20365;-75
2023/06/05 00:11:53;;;;;;;8.60;4.20;;;12.00;99.90;;;;;;5078296;28;20352;-75
2023/06/05 00:14:19;;;;;;;6.87;4.43;;;12.10;99.90;;;;;;5078277;28;20133;-75
2023/06/05 00:16:45;;;;;;;6.93;3.83;;;12.10;99.90;;;;;;5095174;28;20036;-75
2023/06/05 00:19:11;;;;;;;8.03;4.30;;;12.20;99.90;;;;;;5094830;28;20360;-75
2023/06/05 00:21:37;;;;;;;8.53;4.40;;;12.20;99.90;;;;;;5094952;28;20444;-75
2023/06/05 00:24:02;;;;;;;8.13;4.23;;;12.20;99.90;;;;;;5078071;28;20285;-75
2023/06/05 00:26:28;;;;;;;7.23;4.27;;;12.20;99.90;;;;;;5095039;28;20058;-75
2023/06/05 00:28:54;;;;;;;6.53;3.97;;;12.20;99.90;;;;;;5112975;28;20492;-76
2023/06/05 00:31:21;;;;;;;9.40;4.17;;;12.20;99.90;;;;;;5094428;28;20487;-74
2023/06/05 00:33:51;;;;;;;6.23;3.70;;;12.30;99.90;;;;;;5078528;28;20432;-74
2023/06/05 00:36:18;;;;;;;7.10;4.50;;;12.20;99.90;;;;;;5094779;28;20290;-74
2023/06/05 00:38:45;;;;;;;6.97;4.30;;;12.20;99.90;;;;;;5113074;28;20288;-74
2023/06/05 00:41:11;;;;;;;6.47;4.13;;;12.20;99.90;;;;;;5094582;28;20285;-74
2023/06/05 00:43:37;;;;;;;8.53;4.40;;;12.20;99.90;;;;;;5113098;28;20277;-74
2023/06/05 00:46:04;;;;;;;9.07;4.07;;;12.20;99.90;;;;;;5094839;28;20388;-74
2023/06/05 00:48:31;;;;;;;7.67;3.73;;;12.20;99.90;;;;;;5095310;28;20862;-74
2023/06/05 00:50:57;;;;;;;6.93;4.23;;;12.20;99.90;;;;;;5094943;28;20273;-73
2023/06/05 00:53:24;;;;;;;5.97;3.70;;;12.20;99.90;;;;;;5094588;28;20282;-74
2023/06/05 00:55:51;;;;;;;7.57;3.77;;;12.20;99.90;;;;;;5112867;28;20317;-74
2023/06/05 00:58:17;;;;;;;6.73;4.00;;;12.20;99.90;;;;;;5112513;28;20277;-74
2023/06/05 01:00:45;;;;;;;7.97;3.90;;;12.20;99.90;;;;;;5097703;28;20287;-74
2023/06/05 01:03:12;;;;;;;8.17;3.73;;;12.20;99.90;;;;;;5098268;28;20805;-74
2023/06/05 01:05:38;;;;;;;6.83;3.97;;;12.20;99.90;;;;;;5098441;28;20384;-74
2023/06/05 01:08:05;;;;;;;6.30;3.40;;;12.30;99.90;;;;;;5116184;28;20720;-74
2023/06/05 01:10:31;;;;;;;5.53;3.30;;;12.30;99.90;;;;;;5081441;28;20123;-74
2023/06/05 01:13:00;;;;;;;5.53;3.13;;;12.30;99.90;;;;;;5116432;28;20281;-74
2023/06/05 01:15:29;;;;;;;6.67;3.57;;;12.30;99.90;;;;;;5116006;28;20765;-74
2023/06/05 01:17:59;;;;;;;6.00;3.50;;;12.30;99.90;;;;;;5098209;28;20602;-74
2023/06/05 01:20:41;;;;;;;7.30;3.97;;;12.30;99.90;;;;;;5081130;28;20290;-74
2023/06/05 01:23:08;;;;;;;7.80;3.67;;;12.20;99.90;;;;;;5116183;28;20598;-74
2023/06/05 01:25:36;;;;;;;7.67;3.60;;;12.20;99.90;;;;;;5097797;28;20340;-74
2023/06/05 01:28:22;;;;;;;6.87;3.90;;;12.20;99.90;;;;;;5097741;28;20751;-74
2023/06/05 01:30:52;;;;;;;6.15;3.60;;;12.20;99.90;;;;;;5081458;28;20765;-74
2023/06/05 01:33:28;;;;;;;6.20;3.30;;;12.20;99.90;;;;;;5097649;28;20054;-74
2023/06/05 01:35:55;;;;;;;9.13;4.00;;;12.20;99.90;;;;;;5081358;28;20312;-75
2023/06/05 01:38:22;;;;;;;6.93;4.30;;;12.20;99.90;;;;;;5097725;28;20297;-74
2023/06/05 01:40:50;;;;;;;6.83;3.43;;;12.20;99.90;;;;;;5097756;28;20317;-74
2023/06/05 01:43:17;;;;;;;5.90;3.77;;;12.20;99.90;;;;;;5115470;28;20285;-74
2023/06/05 01:45:43;;;;;;;5.33;2.73;;;12.10;99.90;;;;;;5115598;28;20300;-74
2023/06/05 01:48:10;;;;;;;5.83;3.60;;;12.10;99.90;;;;;;5115655;28;20319;-74
2023/06/05 01:50:37;;;;;;;6.63;3.20;;;12.10;99.90;;;;;;5115602;28;20293;-74
2023/06/05 01:53:04;;;;;;;6.23;3.30;;;12.10;99.90;;;;;;5097331;28;20329;-74
2023/06/05 01:55:31;;;;;;;5.63;3.10;;;12.10;99.90;;;;;;5097218;28;20278;-75
2023/06/05 01:57:56;;;;;;;5.50;2.50;;;12.10;99.90;;;;;;5097538;28;20273;-74
2023/06/05 02:00:22;;;;;;;5.37;2.63;;;12.10;99.90;;;;;;5097018;28;20293;-75
2023/06/05 02:02:49;;;;;;;5.77;2.50;;;12.10;99.90;;;;;;5097687;28;20058;-75
2023/06/05 02:05:16;;;;;;;5.17;2.53;;;12.10;99.90;;;;;;5096964;28;20066;-75
2023/06/05 02:07:53;;;;;;;8.30;2.90;;;12.10;99.90;;;;;;5097127;28;20281;-74
2023/06/05 02:10:19;;;;;;;5.03;2.67;;;12.10;99.90;;;;;;5096586;28;20792;-74
2023/06/05 02:12:45;;;;;;;6.67;2.83;;;12.10;99.90;;;;;;5079486;28;20333;-69
2023/06/05 02:15:14;;;;;;;4.73;2.30;;;12.10;99.90;;;;;;5115525;28;20281;-69
2023/06/05 02:17:52;;;;;;;7.70;2.97;;;12.10;99.90;;;;;;5115463;28;20105;-69
2023/06/05 02:20:21;;;;;;;4.10;2.57;;;12.10;99.90;;;;;;5115933;28;20273;-69
2023/06/05 02:22:49;;;;;;;5.27;2.47;;;12.10;99.90;;;;;;5115871;28;20285;-69
2023/06/05 02:25:16;;;;;;;5.23;2.77;;;12.10;99.90;;;;;;5114931;28;20313;-71
2023/06/05 02:27:42;;;;;;;5.43;2.60;;;12.10;99.90;;;;;;5115267;28;20634;-69
2023/06/05 02:30:08;;;;;;;6.80;3.57;;;12.10;99.90;;;;;;5115244;28;20290;-69
2023/06/05 02:32:35;;;;;;;4.77;3.00;;;12.00;99.90;;;;;;5115162;28;20424;-69
2023/06/05 02:35:02;;;;;;;6.43;3.50;;;12.00;99.90;;;;;;5115098;28;20281;-69
2023/06/05 02:37:28;;;;;;;6.83;3.50;;;12.00;99.90;;;;;;5115288;28;20327;-69
2023/06/05 02:39:54;;;;;;;7.43;3.70;;;12.00;99.90;;;;;;5115632;28;20274;-69
2023/06/05 02:42:20;;;;;;;6.13;3.83;;;12.10;99.90;;;;;;5114926;28;20285;-69
2023/06/05 02:44:46;;;;;;;6.73;3.90;;;12.10;99.90;;;;;;5114890;28;20289;-69
2023/06/05 02:47:12;;;;;;;6.37;3.93;;;12.10;99.90;;;;;;5097343;28;20052;-69
2023/06/05 02:49:38;;;;;;;6.60;4.03;;;12.10;99.90;;;;;;5114772;28;20305;-69
2023/06/05 02:52:04;;;;;;;7.87;4.20;;;12.20;99.90;;;;;;5115270;28;20036;-69
2023/06/05 02:54:30;;;;;;;6.17;4.10;;;12.20;99.90;;;;;;5114772;28;20088;-69
2023/06/05 02:56:56;;;;;;;7.00;4.17;;;12.20;99.90;;;;;;5114667;28;20273;-69
2023/06/05 02:59:25;;;;;;;6.53;4.03;;;12.20;99.90;;;;;;5114776;28;20369;-69
2023/06/05 03:01:51;;;;;;;7.40;4.40;;;12.20;99.90;;;;;;5114582;28;20794;-69
2023/06/05 03:04:23;;;;;;;5.00;3.43;;;12.20;99.90;;;;;;5114596;28;20278;-69
2023/06/05 03:06:50;;;;;;;6.03;3.27;;;12.20;99.90;;;;;;5114816;28;20349;-69
2023/06/05 03:09:16;;;;;;;6.90;3.90;;;12.20;99.90;;;;;;5115134;28;20296;-69
2023/06/05 03:11:43;;;;;;;8.53;4.10;;;12.20;99.90;;;;;;5114418;28;20278;-69
2023/06/05 03:14:09;;;;;;;6.73;3.67;;;12.20;99.90;;;;;;5096408;28;20716;-69
2023/06/05 03:16:41;;;;;;;7.10;3.90;;;12.20;99.90;;;;;;5114345;28;20281;-69
2023/06/05 03:19:10;;;;;;;7.17;3.70;;;12.20;99.90;;;;;;5115081;28;20051;-69
2023/06/05 03:21:38;;;;;;;6.03;3.83;;;12.20;99.90;;;;;;5114221;28;20820;-69
2023/06/05 03:24:06;;;;;;;5.77;3.40;;;12.20;99.90;;;;;;5113901;28;20385;-69
2023/06/05 03:26:32;;;;;;;5.70;3.33;;;12.20;99.90;;;;;;5095692;28;20339;-69
2023/06/05 03:28:58;;;;;;;7.23;3.50;;;12.20;99.90;;;;;;5114060;28;20297;-69
2023/06/05 03:31:25;;;;;;;5.83;3.27;;;12.20;99.90;;;;;;5114249;28;20773;-69
2023/06/05 03:33:51;;;;;;;5.77;3.13;;;12.20;99.90;;;;;;5114121;28;20312;-69
2023/06/05 03:36:19;;;;;;;5.80;3.50;;;12.20;99.90;;;;;;5096051;28;20281;-69
2023/06/05 03:38:45;;;;;;;6.00;3.50;;;12.20;99.90;;;;;;5113901;28;20350;-69
2023/06/05 03:41:11;;;;;;;7.50;3.70;;;12.20;99.90;;;;;;5095736;28;20278;-69
2023/06/05 03:43:37;;;;;;;5.53;3.30;;;12.20;99.90;;;;;;5113548;28;20504;-69
2023/06/05 03:46:04;;;;;;;6.37;4.00;;;12.20;99.90;;;;;;5095746;28;20308;-69
2023/06/05 03:48:29;;;;;;;7.57;3.47;;;12.20;99.90;;;;;;5095685;28;20047;-69
2023/06/05 03:50:56;;;;;;;6.37;3.60;;;12.20;99.90;;;;;;5113816;28;20527;-69
2023/06/05 03:53:22;;;;;;;6.83;3.70;;;12.20;99.90;;;;;;5113811;28;20051;-69
2023/06/05 03:55:49;;;;;;;6.73;3.70;;;12.20;99.90;;;;;;5113804;28;20820;-69
2023/06/05 03:58:16;;;;;;;6.57;3.70;;;12.30;99.90;;;;;;5113700;28;20292;-69
2023/06/05 04:00:45;;;;;;;7.17;4.50;;;12.20;99.90;;;;;;5113656;28;20278;-69
2023/06/05 04:03:12;;;;;;;6.97;4.43;;;12.20;99.90;;;;;;5113669;28;20614;-69
2023/06/05 04:05:39;;;;;;;6.20;3.83;;;12.20;99.90;;;;;;5113566;28;20453;-69
2023/06/05 04:08:06;;;;;;;6.80;4.70;;;12.30;99.90;;;;;;5095485;28;20281;-69
2023/06/05 04:10:32;;;;;;;6.67;3.97;;;12.30;99.90;;;;;;5114094;28;20273;-69
2023/06/05 04:12:57;;;;;;;6.97;3.93;;;12.20;99.90;;;;;;5113545;28;20753;-69
2023/06/05 04:15:23;;;;;;;6.57;3.70;;;12.30;99.90;;;;;;5113832;28;20112;-69
2023/06/05 04:17:49;;;;;;;6.43;3.77;;;12.30;99.90;;;;;;5113536;28;20047;-69
2023/06/05 04:20:15;;;;;;;7.67;3.67;;;12.30;99.90;;;;;;5095396;28;20289;-69
2023/06/05 04:22:47;;;;;;;6.20;3.30;;;12.30;99.90;;;;;;5113738;28;20286;-69
2023/06/05 04:25:13;;;;;;;6.00;3.63;;;12.30;99.90;;;;;;5113815;28;20402;-69
2023/06/05 04:27:40;;;;;;;6.30;3.70;;;12.40;99.90;;;;;;5095247;28;20288;-69
2023/06/05 04:30:07;;;;;;;5.97;3.57;;;12.40;99.90;;;;;;5095441;28;20281;-70
2023/06/05 04:32:37;;;;;;;5.50;3.60;;;12.40;99.90;;;;;;5113914;28;20281;-70
2023/06/05 04:35:03;;;;;;;7.20;3.60;;;12.40;99.90;;;;;;5115325;28;20281;-69
2023/06/05 04:37:29;;;;;;;4.80;2.50;;;12.40;99.90;;;;;;5117412;28;20290;-69
2023/06/05 04:39:54;;;;;;;5.93;3.30;;;12.50;99.90;;;;;;5099676;28;20292;-69
2023/06/05 04:42:21;;;;;;;6.23;3.57;;;12.50;99.90;;;;;;5098990;28;20056;-69
2023/06/05 04:44:58;;;;;;;7.20;4.20;;;12.60;99.90;;;;;;5117455;28;20490;-69
2023/06/05 04:47:24;;;;;;;5.63;3.67;;;12.60;99.90;;;;;;5117235;28;20281;-69
2023/06/05 04:49:51;;;;;;;6.50;3.90;;;12.60;99.90;;;;;;5117150;28;20713;-69
2023/06/05 04:52:18;;;;;;;6.70;3.80;;;12.70;99.90;;;;;;5118198;28;20761;-69
2023/06/05 04:54:44;;;;;;;6.67;3.60;;;12.70;99.90;;;;;;5117136;28;20300;-69
2023/06/05 04:57:11;;;;;;;5.53;3.27;;;12.70;99.90;;;;;;5099079;28;20304;-69
2023/06/05 04:59:37;;;;;;;6.43;3.30;;;12.80;99.90;;;;;;5116941;28;20286;-69
2023/06/05 05:02:03;;;;;;;6.37;3.10;;;12.80;99.90;;;;;;5116935;28;20288;-69
2023/06/05 05:04:29;;;;;;;5.07;2.77;;;12.90;99.90;;;;;;5117682;28;20075;-69
2023/06/05 05:07:01;;;;;;;5.57;2.37;;;12.90;99.90;;;;;;5116658;28;20297;-69
2023/06/05 05:09:33;;;;;;;5.50;2.73;;;13.00;99.90;;;;;;5117492;28;20280;-69
2023/06/05 05:11:59;;;;;;;5.30;2.67;;;13.00;99.90;;;;;;5116745;28;20288;-69
2023/06/05 05:14:28;;;;;;;6.30;2.90;;;13.00;99.90;;;;;;5098726;28;20723;-69
2023/06/05 05:16:55;;;;;;;5.57;2.67;;;13.00;99.90;;;;;;5098640;28;20354;-69
2023/06/05 05:19:22;;;;;;;4.27;2.50;;;13.00;99.90;;;;;;5116563;28;20277;-69
2023/06/05 05:21:48;;;;;;;4.03;2.17;;;13.10;99.90;;;;;;5116561;28;20279;-69
2023/06/05 05:24:14;;;;;;;4.13;2.50;;;13.10;99.90;;;;;;5117016;28;20824;-68
2023/06/05 05:26:40;;;;;;;4.90;2.33;;;13.10;99.90;;;;;;5098002;28;20108;-69
2023/06/05 05:29:09;;;;;;;4.47;2.20;;;13.20;99.90;;;;;;5081834;28;20732;-68
2023/06/05 05:31:34;;;;;;;4.67;2.40;;;13.20;99.90;;;;;;5098168;28;20039;-67
2023/06/05 05:34:00;;;;;;;4.57;2.30;;;13.20;99.90;;;;;;5098203;28;20769;-67
2023/06/05 05:36:27;;;;;;;3.50;2.00;;;13.20;99.90;;;;;;5116260;28;20124;-67
2023/06/05 05:38:55;;;;;;;8.03;2.30;;;13.20;99.90;;;;;;5116211;28;20181;-67
2023/06/05 05:41:21;;;;;;;6.57;2.90;;;13.20;99.90;;;;;;5116618;28;20314;-67
2023/06/05 05:43:47;;;;;;;3.83;2.00;;;13.20;99.90;;;;;;5098087;28;20305;-67
2023/06/05 05:46:13;;;;;;;4.63;2.60;;;13.30;99.90;;;;;;5115911;28;20297;-67
2023/06/05 05:48:39;;;;;;;6.07;2.40;;;13.30;99.90;;;;;;5116017;28;20044;-68
2023/06/05 05:51:07;;;;;;;3.63;1.97;;;13.40;99.90;;;;;;5116008;28;20277;-68
2023/06/05 05:53:32;;;;;;;5.20;2.27;;;13.40;99.90;;;;;;5116013;28;20058;-67
2023/06/05 05:56:00;;;;;;;4.57;2.13;;;13.50;99.90;;;;;;5115895;28;20345;-67
2023/06/05 05:58:25;;;;;;;4.67;1.80;;;13.60;99.90;;;;;;5116111;28;20397;-67
2023/06/05 06:00:52;;;;;;;3.63;1.90;;;13.70;99.90;;;;;;5116300;28;20278;-69
2023/06/05 06:03:18;;;;;;;4.00;1.93;;;13.80;99.90;;;;;;5115753;28;20110;-68
2023/06/05 06:05:47;;;;;;;5.23;2.63;;;13.80;99.90;;;;;;5116143;28;20297;-68
2023/06/05 06:08:12;;;;;;;4.13;2.03;;;13.70;99.90;;;;;;5097926;28;20297;-68
2023/06/05 06:10:38;;;;;;;3.90;1.90;;;13.70;99.90;;;;;;5115203;28;20278;-68
2023/06/05 06:13:04;;;;;;;5.07;2.27;;;13.70;99.90;;;;;;5115601;28;20044;-68
2023/06/05 06:15:31;;;;;;;4.17;2.10;;;13.80;99.90;;;;;;5097300;28;20081;-68
2023/06/05 06:17:57;;;;;;;4.97;1.73;;;13.80;99.90;;;;;;5115383;28;20123;-68
2023/06/05 06:20:23;;;;;;;4.17;1.70;;;13.80;99.90;;;;;;5097070;28;20298;-68
2023/06/05 06:22:49;;;;;;;4.33;2.03;;;14.00;99.90;;;;;;5114851;28;20502;-67
2023/06/05 06:25:15;;;;;;;3.87;2.00;;;14.10;99.90;;;;;;5096799;28;20382;-67
2023/06/05 06:27:45;;;;;;;3.77;1.80;;;14.00;99.90;;;;;;5115293;28;20366;-68
2023/06/05 06:30:12;;;;;;;3.70;1.90;;;13.90;99.90;;;;;;5114889;28;20792;-67
2023/06/05 06:32:37;;;;;;;3.20;1.77;;;13.90;99.90;;;;;;5115331;28;20831;-68
2023/06/05 06:35:06;;;;;;;5.00;1.90;;;14.00;99.90;;;;;;5115345;28;20309;-68
2023/06/05 06:37:31;;;;;;;4.00;1.90;;;14.40;99.90;;;;;;5097127;28;20060;-68
2023/06/05 06:39:58;;;;;;;5.53;1.60;;;15.20;99.90;;;;;;5115559;28;20296;-68
2023/06/05 06:42:24;;;;;;;4.03;2.00;;;16.10;99.90;;;;;;5114982;28;20066;-68
2023/06/05 06:44:55;;;;;;;8.97;2.93;;;16.60;99.90;;;;;;5114950;28;20736;-68
2023/06/05 06:47:25;;;;;;;5.37;2.17;;;16.60;99.90;;;;;;5114914;28;20105;-68
2023/06/05 06:49:51;;;;;;;7.43;2.20;;;16.70;99.90;;;;;;5115409;28;20289;-68
2023/06/05 06:52:18;;;;;;;5.80;2.13;;;17.40;99.90;;;;;;5114761;28;20278;-68
2023/06/05 06:54:44;;;;;;;5.03;1.73;;;18.10;99.90;;;;;;5096884;28;20051;-68
2023/06/05 06:57:10;;;;;;;3.70;1.80;;;18.90;99.90;;;;;;5096294;28;20292;-68
2023/06/05 06:59:35;;;;;;;4.70;2.17;;;19.90;99.90;;;;;;5096462;28;20051;-68
2023/06/05 07:02:15;;;;;;;4.00;2.00;;;20.50;98.60;;;;;;5114607;28;20093;-68
2023/06/05 07:04:43;;;;;;;5.50;1.93;;;20.90;91.30;;;;;;5114733;28;20082;-68
2023/06/05 07:07:16;;;;;;;2.93;1.87;;;21.40;84.80;;;;;;5115003;28;20379;-68
2023/06/05 07:09:43;;;;;;;4.50;2.10;;;21.80;85.20;;;;;;5115087;28;20134;-68
2023/06/05 07:12:14;;;;;;;3.63;2.17;;;22.20;68.10;;;;;;5114486;28;20048;-68
2023/06/05 07:14:40;;;;;;;4.77;2.33;;;22.60;73.40;;;;;;5114457;28;20047;-68
2023/06/05 07:17:06;;;;;;;4.30;2.10;;;23.20;69.00;;;;;;5114363;28;20047;-68
2023/06/05 07:19:33;;;;;;;3.43;2.17;;;23.10;61.10;;;;;;5114484;28;20564;-68
2023/06/05 07:22:00;;;;;;;4.07;2.07;;;22.60;60.30;;;;;;5114516;28;20040;-68
2023/06/05 07:24:28;;;;;;;4.43;1.97;;;23.10;60.40;;;;;;5113958;28;20111;-68
2023/06/05 07:26:55;;;;;;;6.23;2.20;;;23.90;56.20;;;;;;5095461;28;20059;-69
2023/06/05 07:29:23;;;;;;;4.53;2.20;;;24.40;56.60;;;;;;5114688;28;20044;-69
2023/06/05 07:31:50;;;;;;;4.10;1.90;;;25.00;55.70;;;;;;5114662;28;20044;-70
2023/06/05 07:34:18;;;;;;;5.77;2.30;;;24.90;53.20;;;;;;5114669;28;20453;-69
2023/06/05 07:36:45;;;;;;;4.47;2.27;;;24.70;53.10;;;;;;5114087;28;20043;-68
2023/06/05 07:39:11;;;;;;;5.07;2.33;;;24.10;52.90;;;;;;5114926;28;20101;-68
2023/06/05 07:41:39;;;;;;;5.70;2.50;;;23.10;53.50;;;;;;5114045;28;20054;-68
2023/06/05 07:44:07;;;;;;;4.97;2.30;;;22.30;54.90;;;;;;5113930;28;20376;-69
2023/06/05 07:46:33;;;;;;;4.13;2.47;;;21.80;56.40;;;;;;5113890;28;20505;-68
2023/06/05 07:48:58;;;;;;;4.33;2.30;;;21.40;57.80;;;;;;5113916;28;20083;-68
2023/06/05 07:51:25;;;;;;;4.47;2.40;;;20.80;58.60;;;;;;5096022;28;20047;-68
2023/06/05 07:53:50;;;;;;;4.27;2.30;;;20.60;61.90;;;;;;5114180;28;20051;-69
2023/06/05 07:56:16;;;;;;;5.70;2.43;;;20.50;64.10;;;;;;5079351;28;20051;-69
2023/06/05 07:58:42;;;;;;;4.87;2.50;;;20.30;64.90;;;;;;5095451;28;20039;-69
2023/06/05 08:01:09;;;;;;;6.07;2.53;;;21.00;66.60;;;;;;5114490;28;20066;-69
2023/06/05 08:03:35;;;;;;;3.93;2.30;;;21.80;63.70;;;;;;5113461;28;20495;-69
2023/06/05 08:06:02;;;;;;;4.67;2.47;;;22.20;59.80;;;;;;5113588;28;20043;-67
2023/06/05 08:08:27;;;;;;;4.30;2.40;;;22.80;58.60;;;;;;5095810;28;20052;-68
2023/06/05 08:10:53;;;;;;;3.87;2.40;;;23.10;57.20;;;;;;5117669;28;20047;-69
2023/06/05 08:13:19;;;;;;;4.73;2.60;;;23.30;55.40;;;;;;5099814;28;20044;-69
2023/06/05 08:15:45;;;;;;;29.73;4.10;;;23.20;55.90;;;;;;5099713;28;20048;-68
2023/06/05 08:18:11;;;;;;;4.90;2.47;;;23.70;55.80;;;;;;5117469;28;20044;-69
2023/06/05 08:20:36;;;;;;;4.87;2.73;;;24.10;54.10;;;;;;5099909;28;20069;-69
2023/06/05 08:23:05;;;;;;;5.17;2.00;;;24.50;53.70;;;;;;5099603;28;20050;-69
2023/06/05 08:25:31;;;;;;;4.40;2.10;;;24.30;52.60;;;;;;5100141;28;20050;-68
2023/06/05 08:27:56;;;;;;;4.90;2.30;;;23.80;52.50;;;;;;5117641;28;20056;-69
2023/06/05 08:30:22;;;;;;;3.80;2.37;;;24.10;53.20;;;;;;5117593;28;20043;-69
2023/06/05 08:32:48;;;;;;;4.40;2.50;;;24.40;52.90;;;;;;5118055;28;20138;-69
2023/06/05 08:35:14;;;;;;;5.53;2.50;;;24.70;51.90;;;;;;5117987;28;20127;-69
2023/06/05 08:37:40;;;;;;;5.50;2.53;;;24.60;51.20;;;;;;5117535;28;20054;-69
2023/06/05 08:40:08;;;;;;;5.43;2.77;;;24.80;51.10;;;;;;5117459;28;20166;-69
2023/06/05 08:42:34;;;;;;;6.10;2.63;;;25.00;51.90;;;;;;5117958;28;20066;-69
2023/06/05 08:45:00;;;;;;;4.30;2.30;;;24.70;51.80;;;;;;5117354;28;20112;-69
2023/06/05 08:47:29;;;;;;;5.63;2.80;;;24.10;52.20;;;;;;5117276;28;20124;-69
2023/06/05 08:49:57;;;;;;;4.10;2.43;;;23.70;52.50;;;;;;5099296;28;20047;-68
2023/06/05 08:52:23;;;;;;;4.80;2.23;;;22.90;52.30;;;;;;5116900;28;20487;-69
2023/06/05 08:54:49;;;;;;;3.90;2.30;;;22.30;52.30;;;;;;5117194;28;20063;-68
2023/06/05 08:57:16;;;;;;;4.90;2.20;;;21.50;53.30;;;;;;5117174;28;20048;-68
2023/06/05 08:59:43;;;;;;;6.17;2.33;;;21.00;54.10;;;;;;5117113;28;20452;-68
2023/06/05 09:02:11;;;;;;;4.70;2.40;;;20.80;55.60;;;;;;5117019;28;20047;-69
2023/06/05 09:04:39;;;;;;;3.57;2.20;;;20.60;56.50;;;;;;5116970;28;20051;-68
2023/06/05 09:07:06;;;;;;;6.13;2.77;;;20.40;57.30;;;;;;5116831;28;20090;-69
2023/06/05 09:09:34;;;;;;;5.20;2.47;;;20.40;60.40;;;;;;5116873;28;20051;-68
2023/06/05 09:12:08;;;;;;;4.07;2.57;;;20.40;61.50;;;;;;5116411;28;20043;-69
2023/06/05 09:14:35;;;;;;;4.95;2.38;;;20.70;62.20;;;;;;5116909;28;20059;-68
2023/06/05 09:17:02;;;;;;;5.60;2.63;;;20.60;61.00;;;;;;5117204;28;20118;-69
2023/06/05 09:19:38;;;;;;;4.00;2.60;;;20.30;62.10;;;;;;5099236;28;20086;-68
2023/06/05 09:22:10;;;;;;;6.57;3.23;;;20.10;63.60;;;;;;5116504;28;20415;-69
2023/06/05 09:24:36;;;;;;;5.53;2.47;;;20.00;63.90;;;;;;5098946;28;20147;-68
2023/06/05 09:27:10;;;;;;;4.20;2.40;;;19.80;64.60;;;;;;5116694;28;20391;-69
2023/06/05 09:29:38;;;;;;;3.95;2.33;;;19.80;66.90;;;;;;5116780;28;20061;-68
2023/06/05 09:32:23;;;;;;;5.50;2.60;;;20.00;69.50;;;;;;5116456;28;20086;-69
2023/06/05 09:35:05;;;;;;;7.80;2.67;;;20.00;69.00;;;;;;5099262;28;20375;-68
2023/06/05 09:37:35;;;;;;;5.83;2.77;;;20.00;70.40;;;;;;5098665;28;20122;-68
2023/06/05 09:40:01;;;;;;;7.30;2.57;;;19.80;73.80;;;;;;5116288;28;20054;-68
2023/06/05 09:42:34;;;;;;;6.30;3.00;;;19.80;77.30;;;;;;5116184;28;20047;-68
2023/06/05 09:45:01;;;;;;;7.57;3.47;;;19.50;78.70;;;;;;5116228;28;20052;-68
2023/06/05 09:47:26;;;;;;;7.33;3.10;;;19.50;81.50;;;;;;5115734;28;20506;-68
2023/06/05 09:49:52;;;;;;;5.20;2.87;;;19.10;81.20;;;;;;5116082;28;20052;-68
2023/06/05 09:52:18;;;;;;;3.80;2.33;;;19.00;82.90;;;;;;5098781;28;20040;-68
2023/06/05 09:54:45;;;;;;;6.20;2.93;;;18.90;84.20;;;;;;5097825;28;20043;-68
2023/06/05 09:57:13;;;;;;;5.53;3.00;;;18.90;86.90;;;;;;5115945;28;20043;-69
2023/06/05 09:59:55;;;;;;;9.73;3.43;;;18.90;87.90;;;;;;5115966;28;20051;-68
2023/06/05 10:02:32;;;;;;;4.40;2.80;;;18.80;91.00;;;;;;5116972;28;20367;-68
2023/06/05 10:05:04;;;;;;;7.00;3.40;;;18.80;90.80;;;;;;5115588;28;20494;-68
2023/06/05 10:07:35;;;;;;;5.53;3.10;;;18.70;91.20;;;;;;5097646;28;20126;-68
2023/06/05 10:10:01;;;;;;;4.57;2.50;;;18.90;91.10;;;;;;5115695;28;20104;-68
2023/06/05 10:12:28;;;;;;;4.63;2.87;;;18.90;90.00;;;;;;5115894;28;20043;-68
2023/06/05 10:14:55;;;;;;;5.50;3.57;;;18.90;90.70;;;;;;5115842;28;20480;-68
2023/06/05 10:17:21;;;;;;;8.00;3.60;;;18.90;91.70;;;;;;5097494;28;20055;-68
2023/06/05 10:19:47;;;;;;;5.27;3.43;;;18.90;92.50;;;;;;5115494;28;20479;-68
2023/06/05 10:22:13;;;;;;;5.17;2.90;;;19.00;92.50;;;;;;5115350;28;20043;-68
2023/06/05 10:24:51;;;;;;;5.10;3.30;;;19.00;92.70;;;;;;5115937;28;20043;-68
2023/06/05 10:27:51;;;;;;;6.67;3.97;;;19.00;93.10;;;;;;5115744;28;20063;-68
2023/06/05 10:30:51;;;;;;;5.80;2.90;;;19.00;93.40;;;;;;5082704;28;20059;-68
2023/06/05 10:33:32;;;;;;;6.17;3.33;;;19.00;92.60;;;;;;5114332;28;20048;-68
2023/06/05 10:36:24;;;;;;;5.83;3.33;;;18.70;92.60;;;;;;5097052;28;20048;-68
2023/06/05 10:38:51;;;;;;;5.80;3.53;;;18.70;93.60;;;;;;5115220;28;20054;-68
2023/06/05 10:41:18;;;;;;;4.47;2.90;;;18.60;93.70;;;;;;5115103;28;20051;-68
2023/06/05 10:43:49;;;;;;;5.70;3.30;;;18.40;93.80;;;;;;5115037;28;20043;-68
2023/06/05 10:46:26;;;;;;;7.87;3.30;;;18.40;94.70;;;;;;5115173;28;20119;-68
2023/06/05 10:49:15;;;;;;;5.87;3.60;;;18.40;95.70;;;;;;5114957;28;20054;-68
2023/06/05 10:51:43;;;;;;;4.50;2.77;;;18.60;95.40;;;;;;5115492;28;20092;-68
2023/06/05 10:54:16;;;;;;;6.47;3.33;;;18.70;94.70;;;;;;5114926;28;20051;-68
2023/06/05 10:57:03;;;;;;;7.33;3.40;;;18.80;94.20;;;;;;5114781;28;20036;-68
2023/06/05 10:59:36;;;;;;;5.47;3.30;;;18.70;94.70;;;;;;5115446;28;20059;-68
2023/06/05 11:02:18;;;;;;;4.30;2.80;;;18.70;94.20;;;;;;5114670;28;20101;-68
2023/06/05 11:04:47;;;;;;;6.10;3.40;;;18.70;94.70;;;;;;5115198;28;20483;-68
2023/06/05 11:07:21;;;;;;;5.97;3.10;;;18.60;95.00;;;;;;5115271;28;20046;-69
2023/06/05 11:10:05;;;;;;;5.47;3.67;;;18.60;95.30;;;;;;5114498;28;20057;-68
2023/06/05 11:12:42;;;;;;;4.97;2.87;;;18.70;95.30;;;;;;5114429;28;20113;-68
2023/06/05 11:15:15;;;;;;;7.07;3.20;;;18.80;95.60;;;;;;5114085;28;20491;-68
2023/06/05 11:17:46;;;;;;;5.33;3.43;;;18.80;95.20;;;;;;5114748;28;20451;-68
2023/06/05 11:20:23;;;;;;;5.50;3.60;;;18.80;94.70;;;;;;5114385;28;20126;-68
2023/06/05 11:22:52;;;;;;;6.50;3.80;;;18.90;95.00;;;;;;5115056;28;20052;-68
2023/06/05 11:25:18;;;;;;;5.23;3.43;;;18.80;95.10;;;;;;5114150;28;20048;-68
2023/06/05 11:27:49;;;;;;;6.00;3.83;;;18.80;95.10;;;;;;5113957;28;20158;-68
2023/06/05 11:30:19;;;;;;;6.00;3.63;;;18.90;95.50;;;;;;5114295;28;20104;-69
2023/06/05 11:32:45;;;;;;;7.37;3.80;;;18.80;95.20;;;;;;5096272;28;20039;-68
2023/06/05 11:35:11;;;;;;;5.03;3.37;;;18.90;95.60;;;;;;5095908;28;20088;-68
2023/06/05 11:37:39;;;;;;;5.60;3.63;;;18.80;94.50;;;;;;5114854;28;20123;-68
2023/06/05 11:40:09;;;;;;;5.20;3.50;;;18.80;94.70;;;;;;5114568;28;20134;-68
2023/06/05 11:42:35;;;;;;;5.00;2.87;;;18.80;94.90;;;;;;5113902;28;20130;-68
2023/06/05 11:45:01;;;;;;;4.57;2.90;;;18.80;94.90;;;;;;5113760;28;20076;-68
2023/06/05 11:47:29;;;;;;;5.60;3.40;;;18.80;94.60;;;;;;5113811;28;20043;-68
2023/06/05 11:50:08;;;;;;;5.50;3.50;;;18.80;94.80;;;;;;5114402;28;20047;-68
2023/06/05 11:52:34;;;;;;;6.50;3.23;;;18.80;94.80;;;;;;5114426;28;20043;-68
2023/06/05 11:55:15;;;;;;;5.17;3.03;;;18.70;95.00;;;;;;5113777;28;20057;-68
2023/06/05 11:57:43;;;;;;;6.80;3.10;;;18.60;94.90;;;;;;5113730;28;20050;-68
2023/06/05 12:00:11;;;;;;;5.50;3.30;;;18.70;95.40;;;;;;5113759;28;20055;-68
2023/06/05 12:02:38;;;;;;;5.47;3.20;;;18.60;95.60;;;;;;5113768;28;20059;-68
2023/06/05 12:05:09;;;;;;;4.87;3.30;;;18.60;95.40;;;;;;5113684;28;20128;-68
2023/06/05 12:07:37;;;;;;;6.20;2.93;;;18.50;95.50;;;;;;5114214;28;20040;-68
2023/06/05 12:10:07;;;;;;;5.00;3.07;;;18.50;96.00;;;;;;5095459;28;20130;-68
2023/06/05 12:12:51;;;;;;;6.23;2.70;;;18.60;96.10;;;;;;5113622;28;20055;-68
2023/06/05 12:15:18;;;;;;;4.32;2.88;;;18.70;96.00;;;;;;5113893;28;20051;-68
2023/06/05 12:17:50;;;;;;;4.07;2.80;;;18.60;95.40;;;;;;5113623;28;20054;-68
2023/06/05 12:20:17;;;;;;;4.47;2.83;;;18.60;95.80;;;;;;5113547;28;20052;-68
2023/06/05 12:22:43;;;;;;;6.53;3.00;;;18.50;96.00;;;;;;5113208;28;20051;-68
2023/06/05 12:25:19;;;;;;;5.53;2.90;;;18.60;96.40;;;;;;5113561;28;20044;-68
2023/06/05 12:27:45;;;;;;;6.70;2.60;;;18.60;96.50;;;;;;5073585;28;20139;-68
2023/06/05 12:30:12;;;;;;;7.47;2.73;;;18.60;96.80;;;;;;5072948;28;20152;-68
2023/06/05 12:32:43;;;;;;;5.57;2.80;;;18.70;96.80;;;;;;5071504;28;20059;-68
2023/06/05 12:35:22;;;;;;;5.17;2.60;;;18.70;96.90;;;;;;5072119;28;20052;-68
2023/06/05 12:37:49;;;;;;;4.20;2.60;;;18.80;97.10;;;;;;5073539;28;20052;-68
2023/06/05 12:40:20;;;;;;;3.93;2.20;;;18.80;96.70;;;;;;5073652;28;20391;-69
2023/06/05 12:42:47;;;;;;;4.90;2.60;;;18.80;96.70;;;;;;5071775;28;20050;-68
2023/06/05 12:45:13;;;;;;;6.73;2.90;;;18.90;96.40;;;;;;5072780;28;20107;-68
2023/06/05 12:47:40;;;;;;;5.07;2.87;;;18.90;96.30;;;;;;5073467;28;20107;-68
2023/06/05 12:50:10;;;;;;;5.23;2.43;;;18.90;96.30;;;;;;5071822;28;20400;-68
2023/06/05 12:52:36;;;;;;;4.00;2.50;;;18.90;96.00;;;;;;5073308;28;20059;-68
2023/06/05 12:55:03;;;;;;;4.73;2.70;;;19.00;96.00;;;;;;5073392;28;20045;-68